sensor_id;sensor_type;location;lat;lon;timestamp;temperature;humidity
69533;DHT22;56729;52.036;5.332;2024-01-25T00:00:05;8.90;99.90
69533;DHT22;56729;52.036;5.332;2024-01-25T00:01:07;8.80;99.90
69533;DHT22;56729;52.036;5.332;2024-01-25T00:02:09;8.80;99.90
69533;DHT22;56729;52.036;5.332;2024-01-25T00:03:11;8.80;99.90
69533;DHT22;56729;52.036;5.332;2024-01-25T00:04:13;8.80;99.90
69533;DHT22;56729;52.036;5.332;2024-01-25T00:05:15;8.80;99.90
69533;DHT22;56729;52.036;5.332;2024-01-25T00:06:18;8.80;99.90
69533;DHT22;56729;52.036;5.332;2024-01-25T00:07:20;8.70;99.90
69533;DHT22;56729;52.036;5.332;2024-01-25T00:08:22;8.70;99.90
69533;DHT22;56729;52.036;5.332;2024-01-25T00:09:24;8.70;99.90
69533;DHT22;56729;52.036;5.332;2024-01-25T00:10:26;8.70;99.90
69533;DHT22;56729;52.036;5.332;2024-01-25T00:11:28;8.60;99.90
69533;DHT22;56729;52.036;5.332;2024-01-25T00:12:33;8.60;99.90
69533;DHT22;56729;52.036;5.332;2024-01-25T00:13:35;8.60;99.90
69533;DHT22;56729;52.036;5.332;2024-01-25T00:14:37;8.60;99.90
69533;DHT22;56729;52.036;5.332;2024-01-25T00:15:39;8.60;99.90
69533;DHT22;56729;52.036;5.332;2024-01-25T00:16:41;8.60;99.90
69533;DHT22;56729;52.036;5.332;2024-01-25T00:17:44;8.50;99.90
69533;DHT22;56729;52.036;5.332;2024-01-25T00:18:46;8.60;99.90
69533;DHT22;56729;52.036;5.332;2024-01-25T00:19:48;8.50;99.90
69533;DHT22;56729;52.036;5.332;2024-01-25T00:20:51;8.50;99.90
69533;DHT22;56729;52.036;5.332;2024-01-25T00:21:54;8.50;99.90
69533;DHT22;56729;52.036;5.332;2024-01-25T00:22:57;8.50;99.90
69533;DHT22;56729;52.036;5.332;2024-01-25T00:23:59;8.50;99.90
69533;DHT22;56729;52.036;5.332;2024-01-25T00:25:01;8.40;99.90
69533;DHT22;56729;52.036;5.332;2024-01-25T00:26:03;8.50;99.90
69533;DHT22;56729;52.036;5.332;2024-01-25T00:27:05;8.40;99.90
69533;DHT22;56729;52.036;5.332;2024-01-25T00:28:07;8.40;99.90
69533;DHT22;56729;52.036;5.332;2024-01-25T00:29:09;8.40;99.90
69533;DHT22;56729;52.036;5.332;2024-01-25T00:30:11;8.40;99.90
69533;DHT22;56729;52.036;5.332;2024-01-25T00:31:13;8.40;99.90
69533;DHT22;56729;52.036;5.332;2024-01-25T00:32:15;8.40;99.90
69533;DHT22;56729;52.036;5.332;2024-01-25T00:33:18;8.30;99.90
69533;DHT22;56729;52.036;5.332;2024-01-25T00:34:20;8.30;99.90
69533;DHT22;56729;52.036;5.332;2024-01-25T00:35:23;8.30;99.90
69533;DHT22;56729;52.036;5.332;2024-01-25T00:36:25;8.30;99.90
69533;DHT22;56729;52.036;5.332;2024-01-25T00:37:28;8.30;99.90
69533;DHT22;56729;52.036;5.332;2024-01-25T00:38:30;8.30;99.90
69533;DHT22;56729;52.036;5.332;2024-01-25T00:39:33;8.30;99.90
69533;DHT22;56729;52.036;5.332;2024-01-25T00:40:35;8.20;99.90
69533;DHT22;56729;52.036;5.332;2024-01-25T00:41:38;8.20;99.90
69533;DHT22;56729;52.036;5.332;2024-01-25T00:42:45;8.20;99.90
69533;DHT22;56729;52.036;5.332;2024-01-25T00:43:51;8.20;99.90
69533;DHT22;56729;52.036;5.332;2024-01-25T00:44:53;8.20;99.90
69533;DHT22;56729;52.036;5.332;2024-01-25T00:45:56;8.20;99.90
69533;DHT22;56729;52.036;5.332;2024-01-25T00:46:58;8.20;99.90
69533;DHT22;56729;52.036;5.332;2024-01-25T00:48:01;8.10;99.90
69533;DHT22;56729;52.036;5.332;2024-01-25T00:49:03;8.20;99.90
69533;DHT22;56729;52.036;5.332;2024-01-25T00:50:05;8.10;99.90
69533;DHT22;56729;52.036;5.332;2024-01-25T00:51:14;8.10;99.90
69533;DHT22;56729;52.036;5.332;2024-01-25T00:52:16;8.10;99.90
69533;DHT22;56729;52.036;5.332;2024-01-25T00:53:19;8.10;99.90
69533;DHT22;56729;52.036;5.332;2024-01-25T00:54:21;8.00;99.90
69533;DHT22;56729;52.036;5.332;2024-01-25T00:55:24;8.00;99.90
69533;DHT22;56729;52.036;5.332;2024-01-25T00:56:26;8.00;99.90
69533;DHT22;56729;52.036;5.332;2024-01-25T00:57:29;8.00;99.90
69533;DHT22;56729;52.036;5.332;2024-01-25T00:58:32;8.00;99.90
69533;DHT22;56729;52.036;5.332;2024-01-25T00:59:35;8.00;99.90
69533;DHT22;56729;52.036;5.332;2024-01-25T01:00:38;7.90;99.90
69533;DHT22;56729;52.036;5.332;2024-01-25T01:01:41;7.90;99.90
69533;DHT22;56729;52.036;5.332;2024-01-25T01:02:45;7.90;99.90
69533;DHT22;56729;52.036;5.332;2024-01-25T01:03:47;7.90;99.90
69533;DHT22;56729;52.036;5.332;2024-01-25T01:04:55;7.90;99.90
69533;DHT22;56729;52.036;5.332;2024-01-25T01:05:59;7.90;99.90
69533;DHT22;56729;52.036;5.332;2024-01-25T01:07:01;7.90;99.90
69533;DHT22;56729;52.036;5.332;2024-01-25T01:08:04;7.90;99.90
69533;DHT22;56729;52.036;5.332;2024-01-25T01:09:06;7.80;99.90
69533;DHT22;56729;52.036;5.332;2024-01-25T01:10:09;7.80;99.90
69533;DHT22;56729;52.036;5.332;2024-01-25T01:11:11;7.80;99.90
69533;DHT22;56729;52.036;5.332;2024-01-25T01:12:14;7.80;99.90
69533;DHT22;56729;52.036;5.332;2024-01-25T01:13:15;7.70;99.90
69533;DHT22;56729;52.036;5.332;2024-01-25T01:14:18;7.70;99.90
69533;DHT22;56729;52.036;5.332;2024-01-25T01:15:20;7.70;99.90
69533;DHT22;56729;52.036;5.332;2024-01-25T01:16:22;7.70;99.90
69533;DHT22;56729;52.036;5.332;2024-01-25T01:17:24;7.70;99.90
69533;DHT22;56729;52.036;5.332;2024-01-25T01:18:26;7.70;99.90
69533;DHT22;56729;52.036;5.332;2024-01-25T01:19:28;7.60;99.90
69533;DHT22;56729;52.036;5.332;2024-01-25T01:20:31;7.60;99.90
69533;DHT22;56729;52.036;5.332;2024-01-25T01:21:33;7.60;99.90
69533;DHT22;56729;52.036;5.332;2024-01-25T01:22:36;7.60;99.90
69533;DHT22;56729;52.036;5.332;2024-01-25T01:23:38;7.60;99.90
69533;DHT22;56729;52.036;5.332;2024-01-25T01:24:40;7.60;99.90
69533;DHT22;56729;52.036;5.332;2024-01-25T01:25:42;7.60;99.90
69533;DHT22;56729;52.036;5.332;2024-01-25T01:26:44;7.60;99.90
69533;DHT22;56729;52.036;5.332;2024-01-25T01:27:48;7.50;99.90
69533;DHT22;56729;52.036;5.332;2024-01-25T01:28:52;7.50;99.90
69533;DHT22;56729;52.036;5.332;2024-01-25T01:29:53;7.50;99.90
69533;DHT22;56729;52.036;5.332;2024-01-25T01:30:56;7.50;99.90
69533;DHT22;56729;52.036;5.332;2024-01-25T01:31:58;7.50;99.90
69533;DHT22;56729;52.036;5.332;2024-01-25T01:33:01;7.50;99.90
69533;DHT22;56729;52.036;5.332;2024-01-25T01:34:03;7.40;99.90
69533;DHT22;56729;52.036;5.332;2024-01-25T01:35:05;7.40;99.90
69533;DHT22;56729;52.036;5.332;2024-01-25T01:36:08;7.40;99.90
69533;DHT22;56729;52.036;5.332;2024-01-25T01:37:11;7.30;99.90
69533;DHT22;56729;52.036;5.332;2024-01-25T01:38:13;7.40;99.90
69533;DHT22;56729;52.036;5.332;2024-01-25T01:39:15;7.40;99.90
69533;DHT22;56729;52.036;5.332;2024-01-25T01:40:17;7.30;99.90
69533;DHT22;56729;52.036;5.332;2024-01-25T01:41:19;7.30;99.90
69533;DHT22;56729;52.036;5.332;2024-01-25T01:42:21;7.30;99.90
69533;DHT22;56729;52.036;5.332;2024-01-25T01:43:24;7.30;99.90
69533;DHT22;56729;52.036;5.332;2024-01-25T01:44:26;7.30;99.90
69533;DHT22;56729;52.036;5.332;2024-01-25T01:45:28;7.30;99.90
69533;DHT22;56729;52.036;5.332;2024-01-25T01:47:36;7.30;99.90
69533;DHT22;56729;52.036;5.332;2024-01-25T01:48:39;7.30;99.90
69533;DHT22;56729;52.036;5.332;2024-01-25T01:49:42;7.20;99.90
69533;DHT22;56729;52.036;5.332;2024-01-25T01:50:45;7.20;99.90
69533;DHT22;56729;52.036;5.332;2024-01-25T01:51:49;7.20;99.90
69533;DHT22;56729;52.036;5.332;2024-01-25T01:52:52;7.20;99.90
69533;DHT22;56729;52.036;5.332;2024-01-25T01:53:54;7.20;99.90
69533;DHT22;56729;52.036;5.332;2024-01-25T01:54:58;7.20;99.90
69533;DHT22;56729;52.036;5.332;2024-01-25T01:56:00;7.20;99.90
69533;DHT22;56729;52.036;5.332;2024-01-25T01:57:03;7.10;99.90
69533;DHT22;56729;52.036;5.332;2024-01-25T01:58:05;7.10;99.90
69533;DHT22;56729;52.036;5.332;2024-01-25T01:59:11;7.10;99.90
69533;DHT22;56729;52.036;5.332;2024-01-25T02:00:15;7.10;99.90
69533;DHT22;56729;52.036;5.332;2024-01-25T02:01:18;7.10;99.90
69533;DHT22;56729;52.036;5.332;2024-01-25T02:02:21;7.10;99.90
69533;DHT22;56729;52.036;5.332;2024-01-25T02:03:26;7.10;99.90
69533;DHT22;56729;52.036;5.332;2024-01-25T02:04:32;7.10;99.90
69533;DHT22;56729;52.036;5.332;2024-01-25T02:05:35;7.10;99.90
69533;DHT22;56729;52.036;5.332;2024-01-25T02:06:37;7.10;99.90
69533;DHT22;56729;52.036;5.332;2024-01-25T02:07:40;7.00;99.90
69533;DHT22;56729;52.036;5.332;2024-01-25T02:08:42;7.00;99.90
69533;DHT22;56729;52.036;5.332;2024-01-25T02:09:45;7.00;99.90
69533;DHT22;56729;52.036;5.332;2024-01-25T02:10:47;7.00;99.90
69533;DHT22;56729;52.036;5.332;2024-01-25T02:12:02;7.00;99.90
69533;DHT22;56729;52.036;5.332;2024-01-25T02:13:05;6.90;99.90
69533;DHT22;56729;52.036;5.332;2024-01-25T02:14:07;6.90;99.90
69533;DHT22;56729;52.036;5.332;2024-01-25T02:15:12;6.90;99.90
69533;DHT22;56729;52.036;5.332;2024-01-25T02:16:14;6.80;99.90
69533;DHT22;56729;52.036;5.332;2024-01-25T02:17:17;6.80;99.90
69533;DHT22;56729;52.036;5.332;2024-01-25T02:18:19;6.70;99.90
69533;DHT22;56729;52.036;5.332;2024-01-25T02:19:21;6.70;99.90
69533;DHT22;56729;52.036;5.332;2024-01-25T02:20:25;6.60;99.90
69533;DHT22;56729;52.036;5.332;2024-01-25T02:21:27;6.50;99.90
69533;DHT22;56729;52.036;5.332;2024-01-25T02:22:29;6.50;99.90
69533;DHT22;56729;52.036;5.332;2024-01-25T02:23:31;6.40;99.90
69533;DHT22;56729;52.036;5.332;2024-01-25T02:24:33;6.40;99.90
69533;DHT22;56729;52.036;5.332;2024-01-25T02:25:35;6.40;99.90
69533;DHT22;56729;52.036;5.332;2024-01-25T02:26:38;6.30;99.90
69533;DHT22;56729;52.036;5.332;2024-01-25T02:27:40;6.30;99.90
69533;DHT22;56729;52.036;5.332;2024-01-25T02:28:42;6.30;99.90
69533;DHT22;56729;52.036;5.332;2024-01-25T02:29:44;6.20;99.90
69533;DHT22;56729;52.036;5.332;2024-01-25T02:30:46;6.20;99.90
69533;DHT22;56729;52.036;5.332;2024-01-25T02:31:48;6.20;99.90
69533;DHT22;56729;52.036;5.332;2024-01-25T02:32:50;6.20;99.90
69533;DHT22;56729;52.036;5.332;2024-01-25T02:33:53;6.10;99.90
69533;DHT22;56729;52.036;5.332;2024-01-25T02:34:55;6.10;99.90
69533;DHT22;56729;52.036;5.332;2024-01-25T02:35:57;6.10;99.90
69533;DHT22;56729;52.036;5.332;2024-01-25T02:36:59;6.10;99.90
69533;DHT22;56729;52.036;5.332;2024-01-25T02:38:01;6.10;99.90
69533;DHT22;56729;52.036;5.332;2024-01-25T02:39:03;6.10;99.90
69533;DHT22;56729;52.036;5.332;2024-01-25T02:40:07;6.00;99.90
69533;DHT22;56729;52.036;5.332;2024-01-25T02:41:09;6.00;99.90
69533;DHT22;56729;52.036;5.332;2024-01-25T02:42:11;6.00;99.90
69533;DHT22;56729;52.036;5.332;2024-01-25T02:43:13;6.10;99.90
69533;DHT22;56729;52.036;5.332;2024-01-25T02:44:16;6.00;99.90
69533;DHT22;56729;52.036;5.332;2024-01-25T02:45:18;6.00;99.90
69533;DHT22;56729;52.036;5.332;2024-01-25T02:46:19;6.00;99.90
69533;DHT22;56729;52.036;5.332;2024-01-25T02:47:22;6.00;99.90
69533;DHT22;56729;52.036;5.332;2024-01-25T02:48:24;6.00;99.90
69533;DHT22;56729;52.036;5.332;2024-01-25T02:49:26;6.00;99.90
69533;DHT22;56729;52.036;5.332;2024-01-25T02:50:29;6.00;99.90
69533;DHT22;56729;52.036;5.332;2024-01-25T02:51:31;5.90;99.90
69533;DHT22;56729;52.036;5.332;2024-01-25T02:52:33;6.00;99.90
69533;DHT22;56729;52.036;5.332;2024-01-25T02:53:35;5.90;99.90
69533;DHT22;56729;52.036;5.332;2024-01-25T02:54:37;5.90;99.90
69533;DHT22;56729;52.036;5.332;2024-01-25T02:55:39;5.90;99.90
69533;DHT22;56729;52.036;5.332;2024-01-25T02:56:41;5.90;99.90
69533;DHT22;56729;52.036;5.332;2024-01-25T02:57:43;5.80;99.90
69533;DHT22;56729;52.036;5.332;2024-01-25T02:58:45;5.80;99.90
69533;DHT22;56729;52.036;5.332;2024-01-25T02:59:47;5.80;99.90
69533;DHT22;56729;52.036;5.332;2024-01-25T03:00:49;5.70;99.90
69533;DHT22;56729;52.036;5.332;2024-01-25T03:01:53;5.70;99.90
69533;DHT22;56729;52.036;5.332;2024-01-25T03:02:59;5.70;99.90
69533;DHT22;56729;52.036;5.332;2024-01-25T03:04:01;5.60;99.90
69533;DHT22;56729;52.036;5.332;2024-01-25T03:05:04;5.60;99.90
69533;DHT22;56729;52.036;5.332;2024-01-25T03:06:06;5.60;99.90
69533;DHT22;56729;52.036;5.332;2024-01-25T03:07:09;5.50;99.90
69533;DHT22;56729;52.036;5.332;2024-01-25T03:08:11;5.50;99.90
69533;DHT22;56729;52.036;5.332;2024-01-25T03:09:13;5.40;99.90
69533;DHT22;56729;52.036;5.332;2024-01-25T03:10:15;5.40;99.90
69533;DHT22;56729;52.036;5.332;2024-01-25T03:11:17;5.30;99.90
69533;DHT22;56729;52.036;5.332;2024-01-25T03:12:19;5.30;99.90
69533;DHT22;56729;52.036;5.332;2024-01-25T03:13:21;5.30;99.90
69533;DHT22;56729;52.036;5.332;2024-01-25T03:14:24;5.20;99.90
69533;DHT22;56729;52.036;5.332;2024-01-25T03:15:26;5.20;99.90
69533;DHT22;56729;52.036;5.332;2024-01-25T03:16:28;5.20;99.90
69533;DHT22;56729;52.036;5.332;2024-01-25T03:17:30;5.10;99.90
69533;DHT22;56729;52.036;5.332;2024-01-25T03:18:32;5.10;99.90
69533;DHT22;56729;52.036;5.332;2024-01-25T03:19:34;5.10;99.90
69533;DHT22;56729;52.036;5.332;2024-01-25T03:20:37;5.00;99.90
69533;DHT22;56729;52.036;5.332;2024-01-25T03:21:39;5.00;99.90
69533;DHT22;56729;52.036;5.332;2024-01-25T03:22:42;4.90;99.90
69533;DHT22;56729;52.036;5.332;2024-01-25T03:23:43;4.90;99.90
69533;DHT22;56729;52.036;5.332;2024-01-25T03:24:46;4.90;99.90
69533;DHT22;56729;52.036;5.332;2024-01-25T03:25:48;4.90;99.90
69533;DHT22;56729;52.036;5.332;2024-01-25T03:26:51;4.90;99.90
69533;DHT22;56729;52.036;5.332;2024-01-25T03:27:53;4.90;99.90
69533;DHT22;56729;52.036;5.332;2024-01-25T03:28:55;4.80;99.90
69533;DHT22;56729;52.036;5.332;2024-01-25T03:29:57;4.90;99.90
69533;DHT22;56729;52.036;5.332;2024-01-25T03:30:59;4.90;99.90
69533;DHT22;56729;52.036;5.332;2024-01-25T03:32:01;4.90;99.90
69533;DHT22;56729;52.036;5.332;2024-01-25T03:33:04;4.80;99.90
69533;DHT22;56729;52.036;5.332;2024-01-25T03:34:06;4.90;99.90
69533;DHT22;56729;52.036;5.332;2024-01-25T03:35:09;4.90;99.90
69533;DHT22;56729;52.036;5.332;2024-01-25T03:36:14;4.90;99.90
69533;DHT22;56729;52.036;5.332;2024-01-25T03:37:17;5.00;99.90
69533;DHT22;56729;52.036;5.332;2024-01-25T03:38:19;5.00;99.90
69533;DHT22;56729;52.036;5.332;2024-01-25T03:39:21;5.00;99.90
69533;DHT22;56729;52.036;5.332;2024-01-25T03:40:24;5.00;99.90
69533;DHT22;56729;52.036;5.332;2024-01-25T03:41:26;5.00;99.90
69533;DHT22;56729;52.036;5.332;2024-01-25T03:42:28;4.90;99.90
69533;DHT22;56729;52.036;5.332;2024-01-25T03:43:31;4.90;99.90
69533;DHT22;56729;52.036;5.332;2024-01-25T03:44:43;4.90;99.90
69533;DHT22;56729;52.036;5.332;2024-01-25T03:45:46;4.90;99.90
69533;DHT22;56729;52.036;5.332;2024-01-25T03:46:48;4.90;99.90
69533;DHT22;56729;52.036;5.332;2024-01-25T03:47:50;4.80;99.90
69533;DHT22;56729;52.036;5.332;2024-01-25T03:48:52;4.80;99.90
69533;DHT22;56729;52.036;5.332;2024-01-25T03:49:56;4.80;99.90
69533;DHT22;56729;52.036;5.332;2024-01-25T03:50:58;4.80;99.90
69533;DHT22;56729;52.036;5.332;2024-01-25T03:52:00;4.70;99.90
69533;DHT22;56729;52.036;5.332;2024-01-25T03:53:02;4.70;99.90
69533;DHT22;56729;52.036;5.332;2024-01-25T03:54:05;4.60;99.90
69533;DHT22;56729;52.036;5.332;2024-01-25T03:55:07;4.60;99.90
69533;DHT22;56729;52.036;5.332;2024-01-25T03:56:12;4.60;99.90
69533;DHT22;56729;52.036;5.332;2024-01-25T03:57:20;4.50;99.90
69533;DHT22;56729;52.036;5.332;2024-01-25T03:58:22;4.50;99.90
69533;DHT22;56729;52.036;5.332;2024-01-25T03:59:24;4.50;99.90
69533;DHT22;56729;52.036;5.332;2024-01-25T04:00:26;4.50;99.90
69533;DHT22;56729;52.036;5.332;2024-01-25T04:01:28;4.40;99.90
69533;DHT22;56729;52.036;5.332;2024-01-25T04:02:33;4.40;99.90
69533;DHT22;56729;52.036;5.332;2024-01-25T04:03:35;4.40;99.90
69533;DHT22;56729;52.036;5.332;2024-01-25T04:04:38;4.30;99.90
69533;DHT22;56729;52.036;5.332;2024-01-25T04:05:40;4.30;99.90
69533;DHT22;56729;52.036;5.332;2024-01-25T04:06:42;4.30;99.90
69533;DHT22;56729;52.036;5.332;2024-01-25T04:07:45;4.30;99.90
69533;DHT22;56729;52.036;5.332;2024-01-25T04:08:47;4.30;99.90
69533;DHT22;56729;52.036;5.332;2024-01-25T04:09:49;4.30;99.90
69533;DHT22;56729;52.036;5.332;2024-01-25T04:10:52;4.30;99.90
69533;DHT22;56729;52.036;5.332;2024-01-25T04:11:55;4.20;99.90
69533;DHT22;56729;52.036;5.332;2024-01-25T04:12:57;4.20;99.90
69533;DHT22;56729;52.036;5.332;2024-01-25T04:13:59;4.20;99.90
69533;DHT22;56729;52.036;5.332;2024-01-25T04:15:01;4.10;99.90
69533;DHT22;56729;52.036;5.332;2024-01-25T04:16:04;4.10;99.90
69533;DHT22;56729;52.036;5.332;2024-01-25T04:17:06;4.10;99.90
69533;DHT22;56729;52.036;5.332;2024-01-25T04:18:08;4.10;99.90
69533;DHT22;56729;52.036;5.332;2024-01-25T04:19:10;4.10;99.90
69533;DHT22;56729;52.036;5.332;2024-01-25T04:20:15;4.10;99.90
69533;DHT22;56729;52.036;5.332;2024-01-25T04:21:17;4.10;99.90
69533;DHT22;56729;52.036;5.332;2024-01-25T04:22:19;4.20;99.90
69533;DHT22;56729;52.036;5.332;2024-01-25T04:23:21;4.20;99.90
69533;DHT22;56729;52.036;5.332;2024-01-25T04:24:23;4.20;99.90
69533;DHT22;56729;52.036;5.332;2024-01-25T04:25:25;4.20;99.90
69533;DHT22;56729;52.036;5.332;2024-01-25T04:26:28;4.20;99.90
69533;DHT22;56729;52.036;5.332;2024-01-25T04:27:30;4.20;99.90
69533;DHT22;56729;52.036;5.332;2024-01-25T04:28:33;4.20;99.90
69533;DHT22;56729;52.036;5.332;2024-01-25T04:29:40;4.20;99.90
69533;DHT22;56729;52.036;5.332;2024-01-25T04:30:45;4.30;99.90
69533;DHT22;56729;52.036;5.332;2024-01-25T04:31:47;4.20;99.90
69533;DHT22;56729;52.036;5.332;2024-01-25T04:32:50;4.20;99.90
69533;DHT22;56729;52.036;5.332;2024-01-25T04:33:52;4.20;99.90
69533;DHT22;56729;52.036;5.332;2024-01-25T04:34:55;4.20;99.90
69533;DHT22;56729;52.036;5.332;2024-01-25T04:35:57;4.10;99.90
69533;DHT22;56729;52.036;5.332;2024-01-25T04:36:59;4.10;99.90
69533;DHT22;56729;52.036;5.332;2024-01-25T04:38:03;4.00;99.90
69533;DHT22;56729;52.036;5.332;2024-01-25T04:39:05;4.00;99.90
69533;DHT22;56729;52.036;5.332;2024-01-25T04:40:08;3.90;99.90
69533;DHT22;56729;52.036;5.332;2024-01-25T04:41:10;3.90;99.90
69533;DHT22;56729;52.036;5.332;2024-01-25T04:42:12;3.90;99.90
69533;DHT22;56729;52.036;5.332;2024-01-25T04:43:14;3.80;99.90
69533;DHT22;56729;52.036;5.332;2024-01-25T04:44:16;3.80;99.90
69533;DHT22;56729;52.036;5.332;2024-01-25T04:45:18;3.80;99.90
69533;DHT22;56729;52.036;5.332;2024-01-25T04:46:20;3.70;99.90
69533;DHT22;56729;52.036;5.332;2024-01-25T04:47:22;3.70;99.90
69533;DHT22;56729;52.036;5.332;2024-01-25T04:48:24;3.70;99.90
69533;DHT22;56729;52.036;5.332;2024-01-25T04:49:27;3.70;99.90
69533;DHT22;56729;52.036;5.332;2024-01-25T04:50:29;3.70;99.90
69533;DHT22;56729;52.036;5.332;2024-01-25T04:51:31;3.70;99.90
69533;DHT22;56729;52.036;5.332;2024-01-25T04:52:33;3.70;99.90
69533;DHT22;56729;52.036;5.332;2024-01-25T04:53:35;3.70;99.90
69533;DHT22;56729;52.036;5.332;2024-01-25T04:54:37;3.70;99.90
69533;DHT22;56729;52.036;5.332;2024-01-25T04:55:39;3.70;99.90
69533;DHT22;56729;52.036;5.332;2024-01-25T04:56:42;3.70;99.90
69533;DHT22;56729;52.036;5.332;2024-01-25T04:57:44;3.80;99.90
69533;DHT22;56729;52.036;5.332;2024-01-25T04:58:46;3.80;99.90
69533;DHT22;56729;52.036;5.332;2024-01-25T04:59:48;3.80;99.90
69533;DHT22;56729;52.036;5.332;2024-01-25T05:00:50;3.80;99.90
69533;DHT22;56729;52.036;5.332;2024-01-25T05:01:54;3.80;99.90
69533;DHT22;56729;52.036;5.332;2024-01-25T05:02:57;3.80;99.90
69533;DHT22;56729;52.036;5.332;2024-01-25T05:04:00;3.80;99.90
69533;DHT22;56729;52.036;5.332;2024-01-25T05:05:02;3.70;99.90
69533;DHT22;56729;52.036;5.332;2024-01-25T05:06:04;3.70;99.90
69533;DHT22;56729;52.036;5.332;2024-01-25T05:07:07;3.70;99.90
69533;DHT22;56729;52.036;5.332;2024-01-25T05:08:09;3.60;99.90
69533;DHT22;56729;52.036;5.332;2024-01-25T05:09:11;3.60;99.90
69533;DHT22;56729;52.036;5.332;2024-01-25T05:10:13;3.60;99.90
69533;DHT22;56729;52.036;5.332;2024-01-25T05:11:15;3.50;99.90
69533;DHT22;56729;52.036;5.332;2024-01-25T05:12:17;3.50;99.90
69533;DHT22;56729;52.036;5.332;2024-01-25T05:13:19;3.50;99.90
69533;DHT22;56729;52.036;5.332;2024-01-25T05:14:21;3.50;99.90
69533;DHT22;56729;52.036;5.332;2024-01-25T05:15:23;3.50;99.90
69533;DHT22;56729;52.036;5.332;2024-01-25T05:16:25;3.50;99.90
69533;DHT22;56729;52.036;5.332;2024-01-25T05:17:27;3.50;99.90
69533;DHT22;56729;52.036;5.332;2024-01-25T05:18:29;3.50;99.90
69533;DHT22;56729;52.036;5.332;2024-01-25T05:19:31;3.50;99.90
69533;DHT22;56729;52.036;5.332;2024-01-25T05:20:34;3.50;99.90
69533;DHT22;56729;52.036;5.332;2024-01-25T05:21:38;3.50;99.90
69533;DHT22;56729;52.036;5.332;2024-01-25T05:22:40;3.50;99.90
69533;DHT22;56729;52.036;5.332;2024-01-25T05:23:43;3.50;99.90
69533;DHT22;56729;52.036;5.332;2024-01-25T05:24:45;3.50;99.90
69533;DHT22;56729;52.036;5.332;2024-01-25T05:25:48;3.50;99.90
69533;DHT22;56729;52.036;5.332;2024-01-25T05:26:50;3.40;99.90
69533;DHT22;56729;52.036;5.332;2024-01-25T05:27:53;3.40;99.90
69533;DHT22;56729;52.036;5.332;2024-01-25T05:28:56;3.40;99.90
69533;DHT22;56729;52.036;5.332;2024-01-25T05:29:58;3.30;99.90
69533;DHT22;56729;52.036;5.332;2024-01-25T05:31:00;3.30;99.90
69533;DHT22;56729;52.036;5.332;2024-01-25T05:32:06;3.30;99.90
69533;DHT22;56729;52.036;5.332;2024-01-25T05:33:08;3.30;99.90
69533;DHT22;56729;52.036;5.332;2024-01-25T05:34:10;3.30;99.90
69533;DHT22;56729;52.036;5.332;2024-01-25T05:35:13;3.30;99.90
69533;DHT22;56729;52.036;5.332;2024-01-25T05:36:15;3.20;99.90
69533;DHT22;56729;52.036;5.332;2024-01-25T05:37:17;3.30;99.90
69533;DHT22;56729;52.036;5.332;2024-01-25T05:38:19;3.30;99.90
69533;DHT22;56729;52.036;5.332;2024-01-25T05:39:21;3.30;99.90
69533;DHT22;56729;52.036;5.332;2024-01-25T05:40:23;3.30;99.90
69533;DHT22;56729;52.036;5.332;2024-01-25T05:41:25;3.30;99.90
69533;DHT22;56729;52.036;5.332;2024-01-25T05:42:27;3.30;99.90
69533;DHT22;56729;52.036;5.332;2024-01-25T05:43:29;3.30;99.90
69533;DHT22;56729;52.036;5.332;2024-01-25T05:44:31;3.30;99.90
69533;DHT22;56729;52.036;5.332;2024-01-25T05:45:33;3.30;99.90
69533;DHT22;56729;52.036;5.332;2024-01-25T05:46:35;3.30;99.90
69533;DHT22;56729;52.036;5.332;2024-01-25T05:47:37;3.30;99.90
69533;DHT22;56729;52.036;5.332;2024-01-25T05:48:40;3.40;99.90
69533;DHT22;56729;52.036;5.332;2024-01-25T05:49:42;3.40;99.90
69533;DHT22;56729;52.036;5.332;2024-01-25T05:50:44;3.40;99.90
69533;DHT22;56729;52.036;5.332;2024-01-25T05:51:46;3.40;99.90
69533;DHT22;56729;52.036;5.332;2024-01-25T05:52:48;3.50;99.90
69533;DHT22;56729;52.036;5.332;2024-01-25T05:53:51;3.50;99.90
69533;DHT22;56729;52.036;5.332;2024-01-25T05:54:53;3.50;99.90
69533;DHT22;56729;52.036;5.332;2024-01-25T05:55:55;3.50;99.90
69533;DHT22;56729;52.036;5.332;2024-01-25T05:56:58;3.50;99.90
69533;DHT22;56729;52.036;5.332;2024-01-25T05:58:00;3.50;99.90
69533;DHT22;56729;52.036;5.332;2024-01-25T05:59:02;3.40;99.90
69533;DHT22;56729;52.036;5.332;2024-01-25T06:00:05;3.40;99.90
69533;DHT22;56729;52.036;5.332;2024-01-25T06:01:08;3.30;99.90
69533;DHT22;56729;52.036;5.332;2024-01-25T06:02:12;3.30;99.90
69533;DHT22;56729;52.036;5.332;2024-01-25T06:03:14;3.30;99.90
69533;DHT22;56729;52.036;5.332;2024-01-25T06:04:16;3.20;99.90
69533;DHT22;56729;52.036;5.332;2024-01-25T06:05:18;3.20;99.90
69533;DHT22;56729;52.036;5.332;2024-01-25T06:06:21;3.20;99.90
69533;DHT22;56729;52.036;5.332;2024-01-25T06:07:24;3.20;99.90
69533;DHT22;56729;52.036;5.332;2024-01-25T06:08:27;3.20;99.90
69533;DHT22;56729;52.036;5.332;2024-01-25T06:09:29;3.10;99.90
69533;DHT22;56729;52.036;5.332;2024-01-25T06:10:31;3.10;99.90
69533;DHT22;56729;52.036;5.332;2024-01-25T06:11:33;3.10;99.90
69533;DHT22;56729;52.036;5.332;2024-01-25T06:12:37;3.10;99.90
69533;DHT22;56729;52.036;5.332;2024-01-25T06:13:39;3.10;99.90
69533;DHT22;56729;52.036;5.332;2024-01-25T06:14:41;3.10;99.90
69533;DHT22;56729;52.036;5.332;2024-01-25T06:15:43;3.10;99.90
69533;DHT22;56729;52.036;5.332;2024-01-25T06:16:45;3.10;99.90
69533;DHT22;56729;52.036;5.332;2024-01-25T06:17:47;3.10;99.90
69533;DHT22;56729;52.036;5.332;2024-01-25T06:18:49;3.10;99.90
69533;DHT22;56729;52.036;5.332;2024-01-25T06:19:51;3.10;99.90
69533;DHT22;56729;52.036;5.332;2024-01-25T06:20:54;3.10;99.90
69533;DHT22;56729;52.036;5.332;2024-01-25T06:21:56;3.10;99.90
69533;DHT22;56729;52.036;5.332;2024-01-25T06:22:58;3.10;99.90
69533;DHT22;56729;52.036;5.332;2024-01-25T06:24:04;3.10;99.90
69533;DHT22;56729;52.036;5.332;2024-01-25T06:25:07;3.10;99.90
69533;DHT22;56729;52.036;5.332;2024-01-25T06:26:10;3.10;99.90
69533;DHT22;56729;52.036;5.332;2024-01-25T06:27:12;3.10;99.90
69533;DHT22;56729;52.036;5.332;2024-01-25T06:28:14;3.00;99.90
69533;DHT22;56729;52.036;5.332;2024-01-25T06:29:16;3.00;99.90
69533;DHT22;56729;52.036;5.332;2024-01-25T06:30:18;3.00;99.90
69533;DHT22;56729;52.036;5.332;2024-01-25T06:31:21;2.90;99.90
69533;DHT22;56729;52.036;5.332;2024-01-25T06:32:23;2.90;99.90
69533;DHT22;56729;52.036;5.332;2024-01-25T06:33:28;2.90;99.90
69533;DHT22;56729;52.036;5.332;2024-01-25T06:34:30;2.90;99.90
69533;DHT22;56729;52.036;5.332;2024-01-25T06:35:32;2.90;99.90
69533;DHT22;56729;52.036;5.332;2024-01-25T06:36:34;2.90;99.90
69533;DHT22;56729;52.036;5.332;2024-01-25T06:37:36;2.90;99.90
69533;DHT22;56729;52.036;5.332;2024-01-25T06:38:38;2.90;99.90
69533;DHT22;56729;52.036;5.332;2024-01-25T06:39:46;3.00;99.90
69533;DHT22;56729;52.036;5.332;2024-01-25T06:40:49;3.00;99.90
69533;DHT22;56729;52.036;5.332;2024-01-25T06:41:51;3.00;99.90